Terminal Aerodrome Forecast
Issued by NWS Bismarck, ND

Home | Current Version | Previous Version | Text Only | Print | Product List | Glossary Off
Versions: 1 2 3 4 5 6 7 8 9 10 11 12 13 14 15

000
FTUS43 KBIS 250500
TAFISN
TAF
KISN 250529Z 2506/2606 27006KT P6SM SCT100 BKN200
     FM250900 VRB03KT P6SM SCT100 BKN200
     FM251800 14008KT P6SM SCT100=

USA.gov is the U.S. government's official web portal to all federal, state and local government web resources and services.